Rosamond, California
Current Conditions -  °F | °C
As of 11:48 AM on Tuesday 21 Oct 2014 (Local Time) from KWJF Reporting Station
Haze Haze  
Wind Chill: 68°   Ceiling: Unl
Heat Index: 68°   Visibility: 2mi
Dew Point: 41°   Wind: 21mph
Humidity: 37%   Direction: 280°W
Pressure: 29.98"   Gusts: 30mph
Location:  34.86°N, 118.16°W
Report Text: KWJF 211848Z 28018G26KT 2SM HZ CLR 20/05 A2998 RMK AO2 PK WND 28027/1802 T02000050
Loading
Personal Weather Stations






























Interactive Weather Map
Tropical Storm Tracking
New forecast layout! Learn more

10-Day Weather Forecast

Advertisements
Track Severe Weather on mobile